createdAt,value
2022-08-21T00:00:13.838Z,0.00
2022-08-21T00:01:13.788Z,0.00
2022-08-21T00:02:13.800Z,0.00
2022-08-21T00:03:13.800Z,0.00
2022-08-21T00:04:16.142Z,0.00
2022-08-21T00:05:14.746Z,0.00
2022-08-21T00:06:13.935Z,0.00
2022-08-21T00:07:13.723Z,0.00
2022-08-21T00:08:13.749Z,0.00
2022-08-21T00:09:13.729Z,0.00
2022-08-21T00:10:13.706Z,0.00
2022-08-21T00:11:13.724Z,0.00
2022-08-21T00:12:13.681Z,0.00
2022-08-21T00:13:13.672Z,0.00
2022-08-21T00:14:14.672Z,0.00
2022-08-21T00:15:13.656Z,0.00
2022-08-21T00:16:13.644Z,0.00
2022-08-21T00:17:13.636Z,0.00
2022-08-21T00:18:13.664Z,0.00
2022-08-21T00:19:13.639Z,0.00
2022-08-21T00:20:13.608Z,0.00
2022-08-21T00:21:13.634Z,0.00
2022-08-21T00:22:13.583Z,0.00
2022-08-21T00:23:13.551Z,0.00
2022-08-21T00:24:13.567Z,0.00
2022-08-21T00:25:13.555Z,0.00
2022-08-21T00:26:13.529Z,0.00
2022-08-21T00:27:13.510Z,0.00
2022-08-21T00:28:13.585Z,0.00
2022-08-21T00:29:13.517Z,0.00
2022-08-21T00:30:17.739Z,0.00
2022-08-21T00:31:14.476Z,0.00
2022-08-21T00:32:13.465Z,0.00
2022-08-21T00:33:13.457Z,0.00
2022-08-21T00:34:13.587Z,0.00
2022-08-21T00:35:13.451Z,0.00
2022-08-21T00:36:13.418Z,0.00
2022-08-21T00:37:13.411Z,0.00
2022-08-21T00:38:13.396Z,0.00
2022-08-21T00:39:13.400Z,0.00
2022-08-21T00:40:13.437Z,0.00
2022-08-21T00:41:37.491Z,0.00
2022-08-21T00:42:14.369Z,0.00
2022-08-21T00:43:13.348Z,0.00
2022-08-21T00:44:13.338Z,0.00
2022-08-21T00:45:13.358Z,0.00
2022-08-21T00:46:13.312Z,0.00
2022-08-21T00:47:13.322Z,0.00
2022-08-21T00:48:13.314Z,0.00
2022-08-21T00:49:13.288Z,0.00
2022-08-21T00:50:17.446Z,0.00
2022-08-21T00:51:14.257Z,0.00
2022-08-21T00:52:13.274Z,0.00
2022-08-21T00:53:13.231Z,0.00
2022-08-21T00:54:18.748Z,0.00
2022-08-21T00:55:14.229Z,0.00
2022-08-21T00:56:13.217Z,0.00
2022-08-21T00:57:13.206Z,0.00
2022-08-21T00:58:13.202Z,0.00
2022-08-21T00:59:13.182Z,0.00
2022-08-21T01:00:13.227Z,0.00
2022-08-21T01:01:13.214Z,0.00
2022-08-21T01:02:13.159Z,0.00
2022-08-21T01:03:13.180Z,0.00
2022-08-21T01:04:13.134Z,0.00
2022-08-21T01:05:13.137Z,0.00
2022-08-21T01:06:13.107Z,0.00
2022-08-21T01:07:13.102Z,0.00
2022-08-21T01:08:13.093Z,0.00
2022-08-21T01:09:13.083Z,0.00
2022-08-21T01:10:23.719Z,0.00
2022-08-21T01:11:14.066Z,0.00
2022-08-21T01:12:13.042Z,0.00
2022-08-21T01:13:13.034Z,0.00
2022-08-21T01:14:13.029Z,0.00
2022-08-21T01:15:13.029Z,0.00
2022-08-21T01:16:13.012Z,0.00
2022-08-21T01:17:12.994Z,0.00
2022-08-21T01:18:12.970Z,0.00
2022-08-21T01:19:12.976Z,0.00
2022-08-21T01:20:12.983Z,0.00
2022-08-21T01:21:12.968Z,0.00
2022-08-21T01:22:12.935Z,0.00
2022-08-21T01:23:12.934Z,0.00
2022-08-21T01:24:12.924Z,0.00
2022-08-21T01:25:12.909Z,0.00
2022-08-21T01:26:12.881Z,0.00
2022-08-21T01:27:12.890Z,0.00
2022-08-21T01:28:12.863Z,0.00
2022-08-21T01:29:21.501Z,0.00
2022-08-21T01:31:24.795Z,0.00
2022-08-21T01:32:23.286Z,0.00
2022-08-21T01:33:23.264Z,0.00
2022-08-21T01:34:23.260Z,0.00
2022-08-21T01:35:23.195Z,0.00
2022-08-21T01:36:23.169Z,0.00
2022-08-21T01:37:23.197Z,0.00
2022-08-21T01:38:23.125Z,0.00
2022-08-21T01:39:23.117Z,0.00
2022-08-21T01:40:23.126Z,0.00
2022-08-21T01:41:23.125Z,0.00
2022-08-21T01:42:23.075Z,0.00
2022-08-21T01:43:32.432Z,0.00
2022-08-21T01:44:24.072Z,0.00
2022-08-21T01:45:23.042Z,0.00
2022-08-21T01:46:23.030Z,0.00
2022-08-21T01:47:23.053Z,0.00
2022-08-21T01:48:23.009Z,0.00
2022-08-21T01:49:23.014Z,0.00
2022-08-21T01:50:23.051Z,0.00
2022-08-21T01:51:23.004Z,0.00
2022-08-21T01:52:22.966Z,0.00
2022-08-21T01:53:27.859Z,0.00
2022-08-21T01:54:23.995Z,0.00
2022-08-21T01:55:22.951Z,0.00
2022-08-21T01:56:22.929Z,0.00
2022-08-21T01:57:22.930Z,0.00
2022-08-21T01:58:22.916Z,0.00
2022-08-21T01:59:22.923Z,0.00
2022-08-21T02:00:22.911Z,0.00
2022-08-21T02:01:22.982Z,0.00
2022-08-21T02:02:22.878Z,0.00
2022-08-21T02:03:31.203Z,0.00
2022-08-21T02:04:23.850Z,0.00
2022-08-21T02:05:22.860Z,0.00
2022-08-21T02:06:22.837Z,0.00
2022-08-21T02:07:22.819Z,0.00
2022-08-21T02:08:22.820Z,0.00
2022-08-21T02:09:22.821Z,0.00
2022-08-21T02:10:22.793Z,0.00
2022-08-21T02:11:22.775Z,0.00
2022-08-21T02:12:22.785Z,0.00
2022-08-21T02:13:22.748Z,0.00
2022-08-21T02:14:28.610Z,0.00
2022-08-21T02:15:23.743Z,0.00
2022-08-21T02:16:22.713Z,0.00
2022-08-21T02:17:22.744Z,0.00
2022-08-21T02:18:22.789Z,0.00
2022-08-21T02:19:22.686Z,0.00
2022-08-21T02:20:22.685Z,0.00
2022-08-21T02:21:22.698Z,0.00
2022-08-21T02:22:22.657Z,0.00
2022-08-21T02:23:26.654Z,0.00
2022-08-21T02:24:22.626Z,0.00
2022-08-21T02:25:22.630Z,0.00
2022-08-21T02:26:22.614Z,0.00
2022-08-21T02:27:26.742Z,0.00
2022-08-21T02:28:22.620Z,0.00
2022-08-21T02:29:22.575Z,0.00
2022-08-21T02:30:22.607Z,0.00
2022-08-21T02:31:22.580Z,0.00
2022-08-21T02:32:22.570Z,0.00
2022-08-21T02:33:22.544Z,0.00
2022-08-21T02:34:22.530Z,0.00
2022-08-21T02:35:23.518Z,0.00
2022-08-21T02:36:22.557Z,0.00
2022-08-21T02:37:22.496Z,0.00
2022-08-21T02:38:22.484Z,0.00
2022-08-21T02:39:27.126Z,0.00
2022-08-21T02:40:23.473Z,0.00
2022-08-21T02:41:22.461Z,0.00
2022-08-21T02:42:22.441Z,0.00
2022-08-21T02:43:22.477Z,0.00
2022-08-21T02:44:22.428Z,0.00
2022-08-21T02:45:23.472Z,0.00
2022-08-21T02:46:22.407Z,0.00
2022-08-21T02:47:22.379Z,0.00
2022-08-21T02:48:22.367Z,0.00
2022-08-21T02:49:22.467Z,0.00
2022-08-21T02:50:22.388Z,0.00
2022-08-21T02:51:22.351Z,0.00
2022-08-21T02:52:22.334Z,0.00
2022-08-21T02:53:22.331Z,0.00
2022-08-21T02:54:22.314Z,0.00
2022-08-21T02:55:22.382Z,0.00
2022-08-21T02:56:22.279Z,0.00
2022-08-21T02:57:22.292Z,0.00
2022-08-21T02:58:22.303Z,0.00
2022-08-21T02:59:22.256Z,0.00
2022-08-21T03:00:22.262Z,0.00
2022-08-21T03:01:22.298Z,0.00
2022-08-21T03:02:22.244Z,0.00
2022-08-21T03:03:22.215Z,0.00
2022-08-21T03:04:22.193Z,0.00
2022-08-21T03:05:22.204Z,0.00
2022-08-21T03:06:22.178Z,0.00
2022-08-21T03:07:22.185Z,0.00
2022-08-21T03:08:22.163Z,0.00
2022-08-21T03:09:22.149Z,0.00
2022-08-21T03:10:22.148Z,0.00
2022-08-21T03:11:22.136Z,0.00
2022-08-21T03:12:22.130Z,0.00
2022-08-21T03:13:22.133Z,0.00
2022-08-21T03:14:22.095Z,0.00
2022-08-21T03:15:22.086Z,0.00
2022-08-21T03:16:22.075Z,0.00
2022-08-21T03:17:29.955Z,0.00
2022-08-21T03:18:23.067Z,0.00
2022-08-21T03:19:22.040Z,0.00
2022-08-21T03:20:22.030Z,0.00
2022-08-21T03:21:22.037Z,0.00
2022-08-21T03:22:22.000Z,0.00
2022-08-21T03:23:21.998Z,0.00
2022-08-21T03:24:30.722Z,0.00
2022-08-21T03:25:39.677Z,0.00
2022-08-21T03:27:34.469Z,4.00
2022-08-21T03:28:34.407Z,4.00
2022-08-21T03:29:34.327Z,4.00
2022-08-21T03:30:34.476Z,4.00
2022-08-21T03:31:34.301Z,4.00
2022-08-21T03:32:34.258Z,4.00
2022-08-21T03:33:34.277Z,8.00
2022-08-21T03:34:34.241Z,4.00
2022-08-21T03:35:34.234Z,8.00
2022-08-21T03:36:34.229Z,8.00
2022-08-21T03:37:34.196Z,8.00
2022-08-21T03:38:34.178Z,8.00
2022-08-21T03:39:34.271Z,12.00
2022-08-21T03:40:34.192Z,12.00
2022-08-21T03:41:34.189Z,16.00
2022-08-21T03:42:41.837Z,20.00
2022-08-21T03:43:42.853Z,24.00
2022-08-21T03:45:44.649Z,32.00
2022-08-21T03:46:44.525Z,40.00
2022-08-21T03:47:44.485Z,44.00
2022-08-21T03:48:44.560Z,52.00
2022-08-21T03:49:44.464Z,56.00
2022-08-21T03:50:44.415Z,64.00
2022-08-21T03:51:44.423Z,72.00
2022-08-21T03:52:44.391Z,80.00
2022-08-21T03:53:44.388Z,88.00
2022-08-21T03:54:44.363Z,100.00
2022-08-21T03:55:44.368Z,108.00
2022-08-21T03:56:44.373Z,120.00
2022-08-21T03:57:44.350Z,128.00
2022-08-21T03:58:44.334Z,140.00
2022-08-21T03:59:44.327Z,148.00
2022-08-21T04:00:44.295Z,160.00
2022-08-21T04:01:44.336Z,176.00
2022-08-21T04:02:44.304Z,188.00
2022-08-21T04:03:44.287Z,204.00
2022-08-21T04:04:44.269Z,216.00
2022-08-21T04:05:44.260Z,232.00
2022-08-21T04:06:44.246Z,252.00
2022-08-21T04:07:44.226Z,276.00
2022-08-21T04:08:44.229Z,292.00
2022-08-21T04:09:44.204Z,312.00
2022-08-21T04:10:44.195Z,336.00
2022-08-21T04:11:44.196Z,360.00
2022-08-21T04:12:44.197Z,380.00
2022-08-21T04:13:44.630Z,404.00
2022-08-21T04:14:44.156Z,432.00
2022-08-21T04:15:44.142Z,456.00
2022-08-21T04:16:44.133Z,484.00
2022-08-21T04:17:44.125Z,508.00
2022-08-21T04:18:44.138Z,536.00
2022-08-21T04:19:44.143Z,568.00
2022-08-21T04:20:49.891Z,600.00
2022-08-21T04:21:45.080Z,632.00
2022-08-21T04:22:44.071Z,668.00
2022-08-21T04:23:44.082Z,708.00
2022-08-21T04:24:44.051Z,748.00
2022-08-21T04:25:44.042Z,788.00
2022-08-21T04:26:44.020Z,832.00
2022-08-21T04:27:44.023Z,876.00
2022-08-21T04:28:43.999Z,920.00
2022-08-21T04:29:44.003Z,964.00
2022-08-21T04:30:44.024Z,1008.00
2022-08-21T04:31:44.017Z,1048.00
2022-08-21T04:32:43.956Z,1088.00
2022-08-21T04:33:43.958Z,1120.00
2022-08-21T04:34:43.952Z,1152.00
2022-08-21T04:35:43.949Z,1192.00
2022-08-21T04:36:43.927Z,1224.00
2022-08-21T04:37:43.910Z,1264.00
2022-08-21T04:38:44.677Z,1316.00
2022-08-21T04:39:43.916Z,1360.00
2022-08-21T04:40:43.891Z,1420.00
2022-08-21T04:41:43.866Z,1484.00
2022-08-21T04:42:43.880Z,1548.00
2022-08-21T04:43:43.846Z,1612.00
2022-08-21T04:44:43.842Z,1684.00
2022-08-21T04:45:43.835Z,1760.00
2022-08-21T04:46:43.848Z,1836.00
2022-08-21T04:47:52.908Z,1920.00
2022-08-21T04:48:44.785Z,2004.00
2022-08-21T04:49:43.778Z,2088.00
2022-08-21T04:50:43.766Z,2172.00
2022-08-21T04:51:43.778Z,2260.00
2022-08-21T04:52:43.763Z,2336.00
2022-08-21T04:53:43.754Z,2424.00
2022-08-21T04:54:43.736Z,2512.00
2022-08-21T04:55:43.720Z,2608.00
2022-08-21T04:56:43.704Z,2700.00
2022-08-21T04:57:48.763Z,2784.00
2022-08-21T04:58:44.706Z,2860.00
2022-08-21T04:59:43.682Z,2940.00
2022-08-21T05:00:43.673Z,3020.00
2022-08-21T05:01:43.749Z,3088.00
2022-08-21T05:02:43.645Z,3156.00
2022-08-21T05:03:43.632Z,3216.00
2022-08-21T05:04:43.626Z,3272.00
2022-08-21T05:05:43.610Z,3320.00
2022-08-21T05:06:43.621Z,3356.00
2022-08-21T05:07:43.593Z,3384.00
2022-08-21T05:08:43.573Z,3408.00
2022-08-21T05:09:43.582Z,3444.00
2022-08-21T05:10:43.565Z,3496.00
2022-08-21T05:11:43.548Z,3548.00
2022-08-21T05:12:43.550Z,3600.00
2022-08-21T05:13:43.554Z,3656.00
2022-08-21T05:14:43.515Z,3724.00
2022-08-21T05:15:43.514Z,3772.00
2022-08-21T05:16:43.492Z,3840.00
2022-08-21T05:17:43.513Z,3912.00
2022-08-21T05:18:44.483Z,3980.00
2022-08-21T05:19:43.460Z,4044.00
2022-08-21T05:20:43.450Z,4100.00
2022-08-21T05:21:43.461Z,4164.00
2022-08-21T05:22:43.423Z,4224.00
2022-08-21T05:23:43.444Z,4296.00
2022-08-21T05:24:43.414Z,4372.00
2022-08-21T05:25:43.401Z,4460.00
2022-08-21T05:26:46.012Z,4548.00
2022-08-21T05:27:43.384Z,4640.00
2022-08-21T05:28:43.368Z,4728.00
2022-08-21T05:29:43.390Z,4812.00
2022-08-21T05:30:43.359Z,4872.00
2022-08-21T05:31:43.327Z,4932.00
2022-08-21T05:32:43.331Z,5008.00
2022-08-21T05:33:43.911Z,5080.00
2022-08-21T05:34:43.306Z,5144.00
2022-08-21T05:35:43.291Z,5204.00
2022-08-21T05:36:43.302Z,5264.00
2022-08-21T05:37:43.299Z,5324.00
2022-08-21T05:38:43.254Z,5384.00
2022-08-21T05:40:05.295Z,5440.00
2022-08-21T05:40:44.328Z,5492.00
2022-08-21T05:41:43.227Z,5524.00
2022-08-21T05:42:43.230Z,5556.00
2022-08-21T05:43:43.216Z,5592.00
2022-08-21T05:44:43.188Z,5632.00
2022-08-21T05:45:44.333Z,5680.00
2022-08-21T05:46:43.178Z,5732.00
2022-08-21T05:47:43.159Z,5788.00
2022-08-21T05:48:43.154Z,5856.00
2022-08-21T05:49:43.144Z,5920.00
2022-08-21T05:50:43.174Z,5976.00
2022-08-21T05:51:43.138Z,6036.00
2022-08-21T05:52:43.118Z,6112.00
2022-08-21T05:53:43.116Z,6196.00
2022-08-21T05:54:43.094Z,6284.00
2022-08-21T05:55:46.173Z,6380.00
2022-08-21T05:56:43.096Z,6460.00
2022-08-21T05:57:43.083Z,6536.00
2022-08-21T05:58:43.047Z,6620.00
2022-08-21T05:59:43.052Z,6688.00
2022-08-21T06:00:43.031Z,6736.00
2022-08-21T06:01:43.050Z,6764.00
2022-08-21T06:02:43.015Z,6796.00
2022-08-21T06:03:43.002Z,6828.00
2022-08-21T06:04:42.981Z,6872.00
2022-08-21T06:05:43.008Z,6920.00
2022-08-21T06:06:42.960Z,6964.00
2022-08-21T06:07:42.970Z,6992.00
2022-08-21T06:08:42.944Z,7004.00
2022-08-21T06:09:42.951Z,7016.00
2022-08-21T06:10:42.918Z,7028.00
2022-08-21T06:11:42.924Z,7032.00
2022-08-21T06:12:42.904Z,7024.00
2022-08-21T06:13:42.890Z,7032.00
2022-08-21T06:14:42.906Z,7048.00
2022-08-21T06:15:42.863Z,7096.00
2022-08-21T06:16:42.856Z,7172.00
2022-08-21T06:17:42.879Z,7276.00
2022-08-21T06:18:42.873Z,7400.00
2022-08-21T06:19:42.829Z,7512.00
2022-08-21T06:20:42.809Z,7584.00
2022-08-21T06:21:42.810Z,7644.00
2022-08-21T06:22:42.798Z,7708.00
2022-08-21T06:23:42.775Z,7808.00
2022-08-21T06:24:42.791Z,7912.00
2022-08-21T06:25:42.766Z,7996.00
2022-08-21T06:26:42.751Z,8064.00
2022-08-21T06:27:42.739Z,8120.00
2022-08-21T06:28:42.722Z,8196.00
2022-08-21T06:29:44.426Z,8288.00
2022-08-21T06:30:42.726Z,8324.00
2022-08-21T06:31:42.704Z,8356.00
2022-08-21T06:32:42.710Z,8388.00
2022-08-21T06:33:42.673Z,8424.00
2022-08-21T06:34:42.660Z,8464.00
2022-08-21T06:35:42.668Z,8524.00
2022-08-21T06:36:42.649Z,8608.00
2022-08-21T06:37:42.629Z,8720.00
2022-08-21T06:38:42.640Z,8864.00
2022-08-21T06:39:45.453Z,9032.00
2022-08-21T06:40:43.775Z,9200.00
2022-08-21T06:41:42.612Z,9348.00
2022-08-21T06:42:42.837Z,9484.00
2022-08-21T06:43:42.566Z,9556.00
2022-08-21T06:44:42.563Z,9592.00
2022-08-21T06:45:42.552Z,9640.00
2022-08-21T06:46:42.537Z,9676.00
2022-08-21T06:47:42.543Z,9688.00
2022-08-21T06:48:42.518Z,9712.00
2022-08-21T06:49:42.509Z,9748.00
2022-08-21T06:50:42.490Z,9812.00
2022-08-21T06:51:42.482Z,9896.00
2022-08-21T06:52:42.500Z,10008.00
2022-08-21T06:53:42.462Z,10040.00
2022-08-21T06:54:42.458Z,10084.00
2022-08-21T06:55:42.454Z,10160.00
2022-08-21T06:56:42.431Z,10244.00
2022-08-21T06:57:42.438Z,10288.00
2022-08-21T06:58:43.414Z,10324.00
2022-08-21T06:59:42.408Z,10356.00
2022-08-21T07:00:42.392Z,10400.00
2022-08-21T07:01:42.428Z,10432.00
2022-08-21T07:02:42.366Z,10484.00
2022-08-21T07:03:42.380Z,10556.00
2022-08-21T07:04:42.351Z,10580.00
2022-08-21T07:05:42.345Z,10600.00
2022-08-21T07:06:42.331Z,10660.00
2022-08-21T07:07:42.311Z,10720.00
2022-08-21T07:08:42.296Z,10760.00
2022-08-21T07:09:42.316Z,10792.00
2022-08-21T07:10:42.285Z,10816.00
2022-08-21T07:11:47.586Z,10832.00
2022-08-21T07:12:43.262Z,10860.00
2022-08-21T07:13:42.251Z,10804.00
2022-08-21T07:14:42.244Z,10784.00
2022-08-21T07:15:42.246Z,10812.00
2022-08-21T07:16:42.212Z,10832.00
2022-08-21T07:17:42.221Z,10868.00
2022-08-21T07:18:42.194Z,10888.00
2022-08-21T07:19:42.181Z,10904.00
2022-08-21T07:20:42.207Z,10916.00
2022-08-21T07:21:42.168Z,10900.00
2022-08-21T07:22:42.155Z,10872.00
2022-08-21T07:23:42.166Z,10836.00
2022-08-21T07:24:42.130Z,10764.00
2022-08-21T07:25:42.115Z,10700.00
2022-08-21T07:26:42.148Z,10604.00
2022-08-21T07:27:42.094Z,10512.00
2022-08-21T07:28:42.094Z,10444.00
2022-08-21T07:29:42.128Z,10364.00
2022-08-21T07:30:42.063Z,10308.00
2022-08-21T07:31:42.056Z,10264.00
2022-08-21T07:32:42.051Z,10220.00
2022-08-21T07:33:42.045Z,10168.00
2022-08-21T07:34:42.039Z,10120.00
2022-08-21T07:35:42.050Z,10084.00
2022-08-21T07:36:42.013Z,10092.00
2022-08-21T07:37:42.004Z,10076.00
2022-08-21T07:38:41.983Z,10116.00
2022-08-21T07:39:42.087Z,10160.00
2022-08-21T07:40:41.961Z,10160.00
2022-08-21T07:41:41.966Z,10164.00
2022-08-21T07:42:41.948Z,10140.00
2022-08-21T07:43:45.947Z,10152.00
2022-08-21T07:44:41.925Z,10196.00
2022-08-21T07:45:41.919Z,10240.00
2022-08-21T07:46:41.917Z,10292.00
2022-08-21T07:47:43.058Z,10324.00
2022-08-21T07:48:41.881Z,10360.00
2022-08-21T07:49:41.877Z,10404.00
2022-08-21T07:50:41.859Z,10408.00
2022-08-21T07:51:41.848Z,10388.00
2022-08-21T07:52:41.844Z,10348.00
2022-08-21T07:53:41.844Z,10280.00
2022-08-21T07:54:41.834Z,10192.00
2022-08-21T07:55:41.816Z,10108.00
2022-08-21T07:56:41.792Z,10016.00
2022-08-21T07:57:41.795Z,9928.00
2022-08-21T07:58:41.791Z,9848.00
2022-08-21T07:59:41.794Z,9812.00
2022-08-21T08:00:41.771Z,9804.00
2022-08-21T08:01:41.819Z,9808.00
2022-08-21T08:02:41.749Z,9792.00
2022-08-21T08:03:41.722Z,9768.00
2022-08-21T08:04:51.069Z,9744.00
2022-08-21T08:05:42.719Z,9684.00
2022-08-21T08:06:41.717Z,9604.00
2022-08-21T08:07:41.687Z,9488.00
2022-08-21T08:08:41.797Z,9328.00
2022-08-21T08:09:41.658Z,9188.00
2022-08-21T08:10:41.648Z,9124.00
2022-08-21T08:11:41.658Z,9052.00
2022-08-21T08:12:41.644Z,8928.00
2022-08-21T08:13:41.623Z,8828.00
2022-08-21T08:14:41.607Z,8764.00
2022-08-21T08:15:41.598Z,8744.00
2022-08-21T08:16:41.596Z,8804.00
2022-08-21T08:17:41.564Z,8832.00
2022-08-21T08:18:41.578Z,8884.00
2022-08-21T08:19:41.545Z,8888.00
2022-08-21T08:20:41.551Z,8880.00
2022-08-21T08:21:41.552Z,8864.00
2022-08-21T08:22:41.513Z,8864.00
2022-08-21T08:23:41.510Z,8868.00
2022-08-21T08:24:41.499Z,8932.00
2022-08-21T08:25:41.493Z,9044.00
2022-08-21T08:26:41.495Z,9200.00
2022-08-21T08:27:41.456Z,9376.00
2022-08-21T08:28:41.449Z,9496.00
2022-08-21T08:29:41.451Z,9564.00
2022-08-21T08:30:41.432Z,9636.00
2022-08-21T08:31:41.444Z,9744.00
2022-08-21T08:32:41.419Z,9884.00
2022-08-21T08:33:41.404Z,9976.00
2022-08-21T08:34:41.399Z,10128.00
2022-08-21T08:35:41.379Z,10352.00
2022-08-21T08:36:41.365Z,10520.00
2022-08-21T08:37:41.390Z,10640.00
2022-08-21T08:38:41.353Z,10752.00
2022-08-21T08:39:41.381Z,10844.00
2022-08-21T08:40:43.051Z,10960.00
2022-08-21T08:41:41.318Z,11068.00
2022-08-21T08:42:41.299Z,11192.00
2022-08-21T08:43:41.305Z,11356.00
2022-08-21T08:44:41.310Z,11412.00
2022-08-21T08:45:41.279Z,11444.00
2022-08-21T08:46:41.275Z,11492.00
2022-08-21T08:47:41.247Z,11592.00
2022-08-21T08:48:41.251Z,11680.00
2022-08-21T08:49:41.255Z,11788.00
2022-08-21T08:50:41.229Z,11904.00
2022-08-21T08:51:41.207Z,12028.00
2022-08-21T08:52:41.207Z,12092.00
2022-08-21T08:53:41.198Z,12112.00
2022-08-21T08:54:41.183Z,12116.00
2022-08-21T08:55:41.170Z,12152.00
2022-08-21T08:56:41.172Z,12220.00
2022-08-21T08:57:41.155Z,12296.00
2022-08-21T08:58:41.131Z,12364.00
2022-08-21T08:59:41.154Z,12464.00
2022-08-21T09:00:41.118Z,12544.00
2022-08-21T09:01:41.180Z,12616.00
2022-08-21T09:02:41.124Z,12692.00
2022-08-21T09:03:41.100Z,12764.00
2022-08-21T09:04:41.075Z,12864.00
2022-08-21T09:05:41.081Z,12968.00
2022-08-21T09:06:41.054Z,13068.00
2022-08-21T09:07:41.037Z,13108.00
2022-08-21T09:08:41.040Z,13132.00
2022-08-21T09:09:41.019Z,13148.00
2022-08-21T09:10:41.020Z,13156.00
2022-08-21T09:11:41.008Z,13172.00
2022-08-21T09:12:40.993Z,13236.00
2022-08-21T09:13:40.988Z,13344.00
2022-08-21T09:14:40.992Z,13508.00
2022-08-21T09:15:40.996Z,13712.00
2022-08-21T09:16:40.946Z,13924.00
2022-08-21T09:17:40.947Z,14084.00
2022-08-21T09:18:40.933Z,14192.00
2022-08-21T09:19:40.917Z,14284.00
2022-08-21T09:20:40.939Z,14392.00
2022-08-21T09:21:40.907Z,14512.00
2022-08-21T09:22:40.904Z,14624.00
2022-08-21T09:23:40.881Z,14748.00
2022-08-21T09:24:40.865Z,14880.00
2022-08-21T09:25:40.856Z,15012.00
2022-08-21T09:26:40.873Z,15116.00
2022-08-21T09:27:40.826Z,15200.00
2022-08-21T09:28:40.817Z,15288.00
2022-08-21T09:29:40.815Z,15388.00
2022-08-21T09:30:40.800Z,15472.00
2022-08-21T09:31:40.803Z,15564.00
2022-08-21T09:32:40.791Z,15636.00
2022-08-21T09:33:40.773Z,15688.00
2022-08-21T09:34:40.772Z,15740.00
2022-08-21T09:35:40.744Z,15792.00
2022-08-21T09:36:40.753Z,16032.00
2022-08-21T09:37:40.727Z,16096.00
2022-08-21T09:38:40.735Z,16192.00
2022-08-21T09:39:42.644Z,16256.00
2022-08-21T09:40:40.730Z,16288.00
2022-08-21T09:41:40.710Z,16320.00
2022-08-21T09:42:40.679Z,16352.00
2022-08-21T09:43:40.682Z,16384.00
2022-08-21T09:44:40.665Z,16416.00
2022-08-21T09:45:40.651Z,16448.00
2022-08-21T09:46:40.641Z,16480.00
2022-08-21T09:47:40.632Z,16576.00
2022-08-21T09:48:40.612Z,16640.00
2022-08-21T09:49:40.608Z,16704.00
2022-08-21T09:50:40.620Z,16736.00
2022-08-21T09:51:40.586Z,16800.00
2022-08-21T09:52:40.575Z,16800.00
2022-08-21T09:53:40.573Z,16800.00
2022-08-21T09:54:40.554Z,16800.00
2022-08-21T09:55:40.540Z,16768.00
2022-08-21T09:56:40.553Z,16768.00
2022-08-21T09:57:46.566Z,16800.00
2022-08-21T09:58:41.512Z,16832.00
2022-08-21T09:59:40.522Z,16864.00
2022-08-21T10:00:40.553Z,16896.00
2022-08-21T10:01:40.485Z,16896.00
2022-08-21T10:02:40.484Z,16896.00
2022-08-21T10:03:40.474Z,16864.00
2022-08-21T10:04:40.469Z,16800.00
2022-08-21T10:05:40.459Z,16704.00
2022-08-21T10:06:40.442Z,16608.00
2022-08-21T10:07:40.436Z,16480.00
2022-08-21T10:08:40.427Z,16352.00
2022-08-21T10:09:40.426Z,16160.00
2022-08-21T10:10:40.400Z,15856.00
2022-08-21T10:11:40.376Z,15692.00
2022-08-21T10:12:40.391Z,15524.00
2022-08-21T10:13:40.378Z,15364.00
2022-08-21T10:14:40.354Z,15236.00
2022-08-21T10:15:40.350Z,15116.00
2022-08-21T10:16:40.361Z,14968.00
2022-08-21T10:17:40.317Z,14792.00
2022-08-21T10:18:40.333Z,14632.00
2022-08-21T10:19:40.309Z,14504.00
2022-08-21T10:20:40.286Z,14356.00
2022-08-21T10:21:40.283Z,14252.00
2022-08-21T10:22:48.911Z,14156.00
2022-08-21T10:23:40.371Z,14124.00
2022-08-21T10:24:40.315Z,14084.00
2022-08-21T10:25:40.293Z,14024.00
2022-08-21T10:26:41.314Z,13948.00
2022-08-21T10:27:40.261Z,13872.00
2022-08-21T10:28:40.225Z,13804.00
2022-08-21T10:29:40.207Z,13728.00
2022-08-21T10:30:40.204Z,13652.00
2022-08-21T10:31:40.197Z,13604.00
2022-08-21T10:32:40.175Z,13560.00
2022-08-21T10:33:40.179Z,13508.00
2022-08-21T10:34:40.146Z,13436.00
2022-08-21T10:35:40.137Z,13348.00
2022-08-21T10:36:40.131Z,13268.00
2022-08-21T10:37:40.116Z,13212.00
2022-08-21T10:38:55.417Z,13140.00
2022-08-21T10:39:41.175Z,13092.00
2022-08-21T10:40:40.088Z,13100.00
2022-08-21T10:41:40.084Z,13068.00
2022-08-21T10:42:40.068Z,13048.00
2022-08-21T10:43:40.084Z,13000.00
2022-08-21T10:44:40.079Z,12992.00
2022-08-21T10:45:40.040Z,12968.00
2022-08-21T10:46:40.031Z,12996.00
2022-08-21T10:47:40.029Z,13084.00
2022-08-21T10:48:40.012Z,13176.00
2022-08-21T10:49:40.097Z,13272.00
2022-08-21T10:50:39.997Z,13380.00
2022-08-21T10:51:39.983Z,13464.00
2022-08-21T10:52:44.228Z,13564.00
2022-08-21T10:53:39.956Z,13640.00
2022-08-21T10:54:39.962Z,13688.00
2022-08-21T10:55:39.942Z,13700.00
2022-08-21T10:56:39.964Z,13700.00
2022-08-21T10:57:39.923Z,13720.00
2022-08-21T10:58:39.913Z,13672.00
2022-08-21T10:59:39.908Z,13572.00
2022-08-21T11:00:39.948Z,13528.00
2022-08-21T11:01:39.882Z,13560.00
2022-08-21T11:02:39.904Z,13596.00
2022-08-21T11:03:39.857Z,13508.00
2022-08-21T11:04:50.017Z,13400.00
2022-08-21T11:05:40.840Z,13308.00
2022-08-21T11:06:39.836Z,13284.00
2022-08-21T11:07:39.829Z,13248.00
2022-08-21T11:08:39.827Z,13176.00
2022-08-21T11:09:39.801Z,13048.00
2022-08-21T11:10:40.850Z,12972.00
2022-08-21T11:11:45.021Z,12928.00
2022-08-21T11:12:40.773Z,12864.00
2022-08-21T11:13:39.772Z,12760.00
2022-08-21T11:14:39.768Z,12636.00
2022-08-21T11:15:40.754Z,12516.00
2022-08-21T11:16:39.725Z,12340.00
2022-08-21T11:17:39.722Z,12156.00
2022-08-21T11:18:39.709Z,11956.00
2022-08-21T11:19:39.709Z,11772.00
2022-08-21T11:20:39.729Z,11664.00
2022-08-21T11:21:39.686Z,11592.00
2022-08-21T11:22:39.669Z,11436.00
2022-08-21T11:23:39.653Z,11216.00
2022-08-21T11:24:39.660Z,11004.00
2022-08-21T11:25:39.640Z,10812.00
2022-08-21T11:26:39.652Z,10624.00
2022-08-21T11:27:39.623Z,10604.00
2022-08-21T11:28:39.612Z,10568.00
2022-08-21T11:29:39.600Z,10436.00
2022-08-21T11:30:39.578Z,10252.00
2022-08-21T11:31:39.588Z,10100.00
2022-08-21T11:32:39.619Z,9968.00
2022-08-21T11:33:39.544Z,9912.00
2022-08-21T11:34:39.534Z,9836.00
2022-08-21T11:35:39.541Z,9708.00
2022-08-21T11:36:42.064Z,9576.00
2022-08-21T11:37:39.502Z,9444.00
2022-08-21T11:38:40.649Z,9320.00
2022-08-21T11:39:39.526Z,9220.00
2022-08-21T11:40:39.492Z,9140.00
2022-08-21T11:41:39.479Z,9088.00
2022-08-21T11:42:39.457Z,9036.00
2022-08-21T11:43:47.148Z,8976.00
2022-08-21T11:44:39.550Z,8916.00
2022-08-21T11:45:39.483Z,8840.00
2022-08-21T11:46:39.706Z,8772.00
2022-08-21T11:47:39.479Z,8692.00
2022-08-21T11:48:39.419Z,8652.00
2022-08-21T11:49:39.463Z,8620.00
2022-08-21T11:50:39.416Z,8568.00
2022-08-21T11:51:39.388Z,8524.00
2022-08-21T11:52:39.358Z,8460.00
2022-08-21T11:53:39.354Z,8384.00
2022-08-21T11:54:39.335Z,8312.00
2022-08-21T11:55:39.323Z,8292.00
2022-08-21T11:56:39.315Z,8668.00
2022-08-21T11:57:39.325Z,8780.00
2022-08-21T11:58:39.306Z,8420.00
2022-08-21T11:59:40.855Z,8484.00
2022-08-21T12:00:39.278Z,8464.00
2022-08-21T12:01:39.315Z,8348.00
2022-08-21T12:02:39.288Z,8280.00
2022-08-21T12:03:39.261Z,8224.00
2022-08-21T12:04:39.233Z,8196.00
2022-08-21T12:05:39.230Z,8076.00
2022-08-21T12:06:39.211Z,7992.00
2022-08-21T12:07:39.203Z,7932.00
2022-08-21T12:08:39.203Z,7964.00
2022-08-21T12:09:39.190Z,7944.00
2022-08-21T12:10:39.172Z,7864.00
2022-08-21T12:11:39.164Z,7756.00
2022-08-21T12:12:39.147Z,7740.00
2022-08-21T12:13:40.204Z,8028.00
2022-08-21T12:14:39.170Z,7724.00
2022-08-21T12:15:39.134Z,7604.00
2022-08-21T12:16:39.106Z,7696.00
2022-08-21T12:17:39.097Z,7836.00
2022-08-21T12:18:39.092Z,7596.00
2022-08-21T12:19:39.075Z,7236.00
2022-08-21T12:20:39.100Z,7120.00
2022-08-21T12:21:40.066Z,7020.00
2022-08-21T12:22:39.055Z,6928.00
2022-08-21T12:23:39.039Z,6864.00